sensor_id;sensor_type;location;lat;lon;timestamp;temperature;humidity
23609;DHT22;11982;50.810;4.442;2022-10-31T00:00:18;14.50;99.90
23609;DHT22;11982;50.810;4.442;2022-10-31T00:02:44;14.40;99.90
23609;DHT22;11982;50.810;4.442;2022-10-31T00:05:09;14.40;99.90
23609;DHT22;11982;50.810;4.442;2022-10-31T00:07:35;14.40;99.90
23609;DHT22;11982;50.810;4.442;2022-10-31T00:10:00;14.40;99.90
23609;DHT22;11982;50.810;4.442;2022-10-31T00:12:26;14.40;99.90
23609;DHT22;11982;50.810;4.442;2022-10-31T00:14:52;14.40;99.90
23609;DHT22;11982;50.810;4.442;2022-10-31T00:17:18;14.30;99.90
23609;DHT22;11982;50.810;4.442;2022-10-31T00:19:44;14.30;99.90
23609;DHT22;11982;50.810;4.442;2022-10-31T00:22:09;14.30;99.90
23609;DHT22;11982;50.810;4.442;2022-10-31T00:24:35;14.20;99.90
23609;DHT22;11982;50.810;4.442;2022-10-31T00:27:00;14.20;99.90
23609;DHT22;11982;50.810;4.442;2022-10-31T00:29:26;14.10;99.90
23609;DHT22;11982;50.810;4.442;2022-10-31T00:31:52;14.10;99.90
23609;DHT22;11982;50.810;4.442;2022-10-31T00:34:18;14.10;99.90
23609;DHT22;11982;50.810;4.442;2022-10-31T00:36:43;14.00;99.90
23609;DHT22;11982;50.810;4.442;2022-10-31T00:39:09;13.80;99.90
23609;DHT22;11982;50.810;4.442;2022-10-31T00:41:34;13.80;99.90
23609;DHT22;11982;50.810;4.442;2022-10-31T00:44:00;13.70;99.90
23609;DHT22;11982;50.810;4.442;2022-10-31T00:46:26;13.70;99.90
23609;DHT22;11982;50.810;4.442;2022-10-31T00:48:51;13.60;99.90
23609;DHT22;11982;50.810;4.442;2022-10-31T00:51:18;13.50;99.90
23609;DHT22;11982;50.810;4.442;2022-10-31T00:53:44;13.50;99.90
23609;DHT22;11982;50.810;4.442;2022-10-31T00:56:09;13.40;99.90
23609;DHT22;11982;50.810;4.442;2022-10-31T00:58:35;13.30;99.90
23609;DHT22;11982;50.810;4.442;2022-10-31T01:01:01;13.20;99.90
23609;DHT22;11982;50.810;4.442;2022-10-31T01:03:30;13.10;99.90
23609;DHT22;11982;50.810;4.442;2022-10-31T01:06:06;13.10;99.90
23609;DHT22;11982;50.810;4.442;2022-10-31T01:08:33;13.00;99.90
23609;DHT22;11982;50.810;4.442;2022-10-31T01:13:39;12.70;99.90
23609;DHT22;11982;50.810;4.442;2022-10-31T01:16:06;12.80;99.90
23609;DHT22;11982;50.810;4.442;2022-10-31T01:18:33;12.90;99.90
23609;DHT22;11982;50.810;4.442;2022-10-31T01:21:01;12.80;99.90
23609;DHT22;11982;50.810;4.442;2022-10-31T01:23:27;12.70;99.90
23609;DHT22;11982;50.810;4.442;2022-10-31T01:26:20;12.80;99.90
23609;DHT22;11982;50.810;4.442;2022-10-31T01:28:52;12.90;99.90
23609;DHT22;11982;50.810;4.442;2022-10-31T01:31:20;12.90;99.90
23609;DHT22;11982;50.810;4.442;2022-10-31T01:33:45;13.00;99.90
23609;DHT22;11982;50.810;4.442;2022-10-31T01:36:38;13.10;99.90
23609;DHT22;11982;50.810;4.442;2022-10-31T01:39:06;13.00;99.90
23609;DHT22;11982;50.810;4.442;2022-10-31T01:41:34;13.10;99.90
23609;DHT22;11982;50.810;4.442;2022-10-31T01:44:03;13.00;99.90
23609;DHT22;11982;50.810;4.442;2022-10-31T01:46:35;13.00;99.90
23609;DHT22;11982;50.810;4.442;2022-10-31T01:49:05;12.90;99.90
23609;DHT22;11982;50.810;4.442;2022-10-31T01:51:38;12.90;99.90
23609;DHT22;11982;50.810;4.442;2022-10-31T01:54:11;12.80;99.90
23609;DHT22;11982;50.810;4.442;2022-10-31T01:56:40;12.80;99.90
23609;DHT22;11982;50.810;4.442;2022-10-31T01:59:10;12.50;99.90
23609;DHT22;11982;50.810;4.442;2022-10-31T02:01:37;12.50;99.90
23609;DHT22;11982;50.810;4.442;2022-10-31T02:04:03;12.40;99.90
23609;DHT22;11982;50.810;4.442;2022-10-31T02:08:59;12.30;99.90
23609;DHT22;11982;50.810;4.442;2022-10-31T02:11:27;12.40;99.90
23609;DHT22;11982;50.810;4.442;2022-10-31T02:13:54;12.50;99.90
23609;DHT22;11982;50.810;4.442;2022-10-31T02:16:19;12.40;99.90
23609;DHT22;11982;50.810;4.442;2022-10-31T02:18:45;12.40;99.90
23609;DHT22;11982;50.810;4.442;2022-10-31T02:21:17;12.50;99.90
23609;DHT22;11982;50.810;4.442;2022-10-31T02:29:32;12.40;99.90
23609;DHT22;11982;50.810;4.442;2022-10-31T02:32:07;12.40;99.90
23609;DHT22;11982;50.810;4.442;2022-10-31T02:34:46;12.40;99.90
23609;DHT22;11982;50.810;4.442;2022-10-31T02:37:46;12.30;99.90
23609;DHT22;11982;50.810;4.442;2022-10-31T02:45:30;12.10;99.90
23609;DHT22;11982;50.810;4.442;2022-10-31T02:48:00;12.10;99.90
23609;DHT22;11982;50.810;4.442;2022-10-31T02:50:32;12.10;99.90
23609;DHT22;11982;50.810;4.442;2022-10-31T02:53:00;12.10;99.90
23609;DHT22;11982;50.810;4.442;2022-10-31T02:58:04;12.00;99.90
23609;DHT22;11982;50.810;4.442;2022-10-31T03:00:37;12.00;99.90
23609;DHT22;11982;50.810;4.442;2022-10-31T03:06:41;12.00;99.90
23609;DHT22;11982;50.810;4.442;2022-10-31T03:11:48;11.90;99.90
23609;DHT22;11982;50.810;4.442;2022-10-31T03:14:26;11.80;99.90
23609;DHT22;11982;50.810;4.442;2022-10-31T03:16:57;11.90;99.90
23609;DHT22;11982;50.810;4.442;2022-10-31T03:19:28;11.80;99.90
23609;DHT22;11982;50.810;4.442;2022-10-31T03:24:26;11.80;99.90
23609;DHT22;11982;50.810;4.442;2022-10-31T03:26:57;11.70;99.90
23609;DHT22;11982;50.810;4.442;2022-10-31T03:29:26;11.50;99.90
23609;DHT22;11982;50.810;4.442;2022-10-31T03:31:59;11.50;99.90
23609;DHT22;11982;50.810;4.442;2022-10-31T03:34:27;11.50;99.90
23609;DHT22;11982;50.810;4.442;2022-10-31T03:36:55;11.50;99.90
23609;DHT22;11982;50.810;4.442;2022-10-31T03:39:23;11.50;99.90
23609;DHT22;11982;50.810;4.442;2022-10-31T03:41:56;11.50;99.90
23609;DHT22;11982;50.810;4.442;2022-10-31T03:44:23;11.40;99.90
23609;DHT22;11982;50.810;4.442;2022-10-31T03:46:50;11.40;99.90
23609;DHT22;11982;50.810;4.442;2022-10-31T03:49:16;11.40;99.90
23609;DHT22;11982;50.810;4.442;2022-10-31T03:52:13;11.30;99.90
23609;DHT22;11982;50.810;4.442;2022-10-31T03:54:43;11.30;99.90
23609;DHT22;11982;50.810;4.442;2022-10-31T03:57:23;11.30;99.90
23609;DHT22;11982;50.810;4.442;2022-10-31T04:00:00;11.30;99.90
23609;DHT22;11982;50.810;4.442;2022-10-31T04:02:30;11.30;99.90
23609;DHT22;11982;50.810;4.442;2022-10-31T04:04:58;11.30;99.90
23609;DHT22;11982;50.810;4.442;2022-10-31T04:07:28;11.30;99.90
23609;DHT22;11982;50.810;4.442;2022-10-31T04:09:56;11.30;99.90
23609;DHT22;11982;50.810;4.442;2022-10-31T04:12:24;11.30;99.90
23609;DHT22;11982;50.810;4.442;2022-10-31T04:14:50;11.30;99.90
23609;DHT22;11982;50.810;4.442;2022-10-31T04:17:19;11.20;99.90
23609;DHT22;11982;50.810;4.442;2022-10-31T04:19:47;11.20;99.90
23609;DHT22;11982;50.810;4.442;2022-10-31T04:22:12;11.20;99.90
23609;DHT22;11982;50.810;4.442;2022-10-31T04:24:39;11.20;99.90
23609;DHT22;11982;50.810;4.442;2022-10-31T04:27:05;11.30;99.90
23609;DHT22;11982;50.810;4.442;2022-10-31T04:29:31;11.20;99.90
23609;DHT22;11982;50.810;4.442;2022-10-31T04:31:57;11.20;99.90
23609;DHT22;11982;50.810;4.442;2022-10-31T04:34:22;11.10;99.90
23609;DHT22;11982;50.810;4.442;2022-10-31T04:36:48;11.10;99.90
23609;DHT22;11982;50.810;4.442;2022-10-31T04:39:13;11.20;99.90
23609;DHT22;11982;50.810;4.442;2022-10-31T04:41:39;11.30;99.90
23609;DHT22;11982;50.810;4.442;2022-10-31T04:44:04;11.20;99.90
23609;DHT22;11982;50.810;4.442;2022-10-31T04:46:30;11.20;99.90
23609;DHT22;11982;50.810;4.442;2022-10-31T04:48:56;11.20;99.90
23609;DHT22;11982;50.810;4.442;2022-10-31T04:51:21;11.20;99.90
23609;DHT22;11982;50.810;4.442;2022-10-31T04:53:47;11.20;99.90
23609;DHT22;11982;50.810;4.442;2022-10-31T04:56:13;11.10;99.90
23609;DHT22;11982;50.810;4.442;2022-10-31T04:58:38;11.10;99.90
23609;DHT22;11982;50.810;4.442;2022-10-31T05:01:04;11.00;99.90
23609;DHT22;11982;50.810;4.442;2022-10-31T05:03:29;10.90;99.90
23609;DHT22;11982;50.810;4.442;2022-10-31T05:05:55;11.00;99.90
23609;DHT22;11982;50.810;4.442;2022-10-31T05:08:21;11.10;99.90
23609;DHT22;11982;50.810;4.442;2022-10-31T05:10:46;11.10;99.90
23609;DHT22;11982;50.810;4.442;2022-10-31T05:13:12;11.30;99.90
23609;DHT22;11982;50.810;4.442;2022-10-31T05:15:38;11.30;99.90
23609;DHT22;11982;50.810;4.442;2022-10-31T05:18:03;11.30;99.90
23609;DHT22;11982;50.810;4.442;2022-10-31T05:20:30;11.20;99.90
23609;DHT22;11982;50.810;4.442;2022-10-31T05:22:57;11.20;99.90
23609;DHT22;11982;50.810;4.442;2022-10-31T05:25:25;11.40;99.90
23609;DHT22;11982;50.810;4.442;2022-10-31T05:27:52;11.40;99.90
23609;DHT22;11982;50.810;4.442;2022-10-31T05:30:20;11.40;99.90
23609;DHT22;11982;50.810;4.442;2022-10-31T05:32:48;11.40;99.90
23609;DHT22;11982;50.810;4.442;2022-10-31T05:35:18;11.40;99.90
23609;DHT22;11982;50.810;4.442;2022-10-31T05:37:44;11.40;99.90
23609;DHT22;11982;50.810;4.442;2022-10-31T05:40:12;11.40;99.90
23609;DHT22;11982;50.810;4.442;2022-10-31T05:42:41;11.50;99.90
23609;DHT22;11982;50.810;4.442;2022-10-31T05:45:09;11.50;99.90
23609;DHT22;11982;50.810;4.442;2022-10-31T05:47:35;11.50;99.90
23609;DHT22;11982;50.810;4.442;2022-10-31T05:50:01;11.60;99.90
23609;DHT22;11982;50.810;4.442;2022-10-31T05:52:26;11.60;99.90
23609;DHT22;11982;50.810;4.442;2022-10-31T05:54:52;11.60;99.90
23609;DHT22;11982;50.810;4.442;2022-10-31T05:57:17;11.60;99.90
23609;DHT22;11982;50.810;4.442;2022-10-31T05:59:43;11.70;99.90
23609;DHT22;11982;50.810;4.442;2022-10-31T06:02:09;11.90;99.90
23609;DHT22;11982;50.810;4.442;2022-10-31T06:04:34;12.20;99.90
23609;DHT22;11982;50.810;4.442;2022-10-31T06:07:00;12.30;99.90
23609;DHT22;11982;50.810;4.442;2022-10-31T06:09:25;12.50;99.90
23609;DHT22;11982;50.810;4.442;2022-10-31T06:11:51;12.50;99.90
23609;DHT22;11982;50.810;4.442;2022-10-31T06:14:17;12.60;99.90
23609;DHT22;11982;50.810;4.442;2022-10-31T06:16:42;12.60;99.90
23609;DHT22;11982;50.810;4.442;2022-10-31T06:19:08;12.70;99.90
23609;DHT22;11982;50.810;4.442;2022-10-31T06:21:33;12.80;99.90
23609;DHT22;11982;50.810;4.442;2022-10-31T06:23:59;12.90;99.90
23609;DHT22;11982;50.810;4.442;2022-10-31T06:26:24;13.00;99.90
23609;DHT22;11982;50.810;4.442;2022-10-31T06:28:50;12.90;99.90
23609;DHT22;11982;50.810;4.442;2022-10-31T06:31:16;12.90;99.90
23609;DHT22;11982;50.810;4.442;2022-10-31T06:33:42;12.90;99.90
23609;DHT22;11982;50.810;4.442;2022-10-31T06:36:08;12.90;99.90
23609;DHT22;11982;50.810;4.442;2022-10-31T06:38:34;12.90;99.90
23609;DHT22;11982;50.810;4.442;2022-10-31T06:41:03;12.70;99.90
23609;DHT22;11982;50.810;4.442;2022-10-31T06:43:29;12.60;99.90
23609;DHT22;11982;50.810;4.442;2022-10-31T06:45:55;12.70;99.90
23609;DHT22;11982;50.810;4.442;2022-10-31T06:48:21;12.80;99.90
23609;DHT22;11982;50.810;4.442;2022-10-31T06:50:46;12.80;99.90
23609;DHT22;11982;50.810;4.442;2022-10-31T06:53:12;12.90;99.90
23609;DHT22;11982;50.810;4.442;2022-10-31T06:55:40;13.00;99.90
23609;DHT22;11982;50.810;4.442;2022-10-31T06:58:06;13.00;99.90
23609;DHT22;11982;50.810;4.442;2022-10-31T07:00:32;13.20;99.90
23609;DHT22;11982;50.810;4.442;2022-10-31T07:03:00;13.30;99.90
23609;DHT22;11982;50.810;4.442;2022-10-31T07:05:27;13.40;99.90
23609;DHT22;11982;50.810;4.442;2022-10-31T07:07:54;13.60;99.90
23609;DHT22;11982;50.810;4.442;2022-10-31T07:10:21;13.70;99.90
23609;DHT22;11982;50.810;4.442;2022-10-31T07:12:47;13.60;99.90
23609;DHT22;11982;50.810;4.442;2022-10-31T07:15:12;13.70;99.90
23609;DHT22;11982;50.810;4.442;2022-10-31T07:17:38;13.70;99.90
23609;DHT22;11982;50.810;4.442;2022-10-31T07:20:04;13.60;99.90
23609;DHT22;11982;50.810;4.442;2022-10-31T07:22:36;13.60;99.90
23609;DHT22;11982;50.810;4.442;2022-10-31T07:25:02;13.60;99.90
23609;DHT22;11982;50.810;4.442;2022-10-31T07:27:28;13.90;99.90
23609;DHT22;11982;50.810;4.442;2022-10-31T07:29:54;13.90;99.90
23609;DHT22;11982;50.810;4.442;2022-10-31T07:32:19;13.90;99.90
23609;DHT22;11982;50.810;4.442;2022-10-31T07:34:45;13.60;99.90
23609;DHT22;11982;50.810;4.442;2022-10-31T07:37:10;13.30;99.90
23609;DHT22;11982;50.810;4.442;2022-10-31T07:39:36;13.50;99.90
23609;DHT22;11982;50.810;4.442;2022-10-31T07:42:01;13.30;99.90
23609;DHT22;11982;50.810;4.442;2022-10-31T07:44:27;13.40;99.90
23609;DHT22;11982;50.810;4.442;2022-10-31T07:46:55;13.60;99.90
23609;DHT22;11982;50.810;4.442;2022-10-31T07:49:21;13.70;99.90
23609;DHT22;11982;50.810;4.442;2022-10-31T07:51:46;13.60;99.90
23609;DHT22;11982;50.810;4.442;2022-10-31T07:54:12;13.70;99.90
23609;DHT22;11982;50.810;4.442;2022-10-31T07:56:37;13.70;99.90
23609;DHT22;11982;50.810;4.442;2022-10-31T07:59:03;13.80;99.90
23609;DHT22;11982;50.810;4.442;2022-10-31T08:01:28;13.80;99.90
23609;DHT22;11982;50.810;4.442;2022-10-31T08:03:54;13.90;99.90
23609;DHT22;11982;50.810;4.442;2022-10-31T08:06:19;14.10;99.90
23609;DHT22;11982;50.810;4.442;2022-10-31T08:08:45;14.30;99.90
23609;DHT22;11982;50.810;4.442;2022-10-31T08:11:10;14.50;99.90
23609;DHT22;11982;50.810;4.442;2022-10-31T08:13:36;14.60;99.90
23609;DHT22;11982;50.810;4.442;2022-10-31T08:16:02;14.80;99.90
23609;DHT22;11982;50.810;4.442;2022-10-31T08:18:30;14.30;99.90
23609;DHT22;11982;50.810;4.442;2022-10-31T08:20:55;14.30;99.90
23609;DHT22;11982;50.810;4.442;2022-10-31T08:23:21;14.30;99.90
23609;DHT22;11982;50.810;4.442;2022-10-31T08:25:46;14.40;99.90
23609;DHT22;11982;50.810;4.442;2022-10-31T08:28:13;14.50;99.90
23609;DHT22;11982;50.810;4.442;2022-10-31T08:30:40;14.60;99.90
23609;DHT22;11982;50.810;4.442;2022-10-31T08:33:12;14.80;99.90
23609;DHT22;11982;50.810;4.442;2022-10-31T08:35:39;14.90;99.90
23609;DHT22;11982;50.810;4.442;2022-10-31T08:38:05;15.10;99.90
23609;DHT22;11982;50.810;4.442;2022-10-31T08:40:32;15.40;99.90
23609;DHT22;11982;50.810;4.442;2022-10-31T08:42:59;15.40;99.90
23609;DHT22;11982;50.810;4.442;2022-10-31T08:45:25;15.50;99.90
23609;DHT22;11982;50.810;4.442;2022-10-31T08:47:52;15.20;99.90
23609;DHT22;11982;50.810;4.442;2022-10-31T08:50:18;15.10;99.90
23609;DHT22;11982;50.810;4.442;2022-10-31T08:52:43;15.30;99.90
23609;DHT22;11982;50.810;4.442;2022-10-31T08:55:09;15.40;99.90
23609;DHT22;11982;50.810;4.442;2022-10-31T08:57:34;15.40;99.90
23609;DHT22;11982;50.810;4.442;2022-10-31T09:00:00;15.50;99.90
23609;DHT22;11982;50.810;4.442;2022-10-31T09:02:26;15.20;99.90
23609;DHT22;11982;50.810;4.442;2022-10-31T09:04:51;15.00;99.90
23609;DHT22;11982;50.810;4.442;2022-10-31T09:07:17;14.90;99.90
23609;DHT22;11982;50.810;4.442;2022-10-31T09:09:42;14.90;99.90
23609;DHT22;11982;50.810;4.442;2022-10-31T09:12:08;15.00;99.90
23609;DHT22;11982;50.810;4.442;2022-10-31T09:14:33;15.20;99.90
23609;DHT22;11982;50.810;4.442;2022-10-31T09:16:59;15.20;99.90
23609;DHT22;11982;50.810;4.442;2022-10-31T09:19:24;15.40;99.90
23609;DHT22;11982;50.810;4.442;2022-10-31T09:21:53;15.40;99.90
23609;DHT22;11982;50.810;4.442;2022-10-31T09:24:19;15.50;99.90
23609;DHT22;11982;50.810;4.442;2022-10-31T09:26:45;15.70;99.90
23609;DHT22;11982;50.810;4.442;2022-10-31T09:29:10;15.70;99.90
23609;DHT22;11982;50.810;4.442;2022-10-31T09:31:36;15.70;99.90
23609;DHT22;11982;50.810;4.442;2022-10-31T09:34:02;15.80;99.90
23609;DHT22;11982;50.810;4.442;2022-10-31T09:36:27;15.70;99.90
23609;DHT22;11982;50.810;4.442;2022-10-31T09:38:53;15.70;99.90
23609;DHT22;11982;50.810;4.442;2022-10-31T09:41:40;15.60;99.90
23609;DHT22;11982;50.810;4.442;2022-10-31T09:49:32;15.20;99.90
23609;DHT22;11982;50.810;4.442;2022-10-31T09:52:09;15.40;99.90
23609;DHT22;11982;50.810;4.442;2022-10-31T09:54:46;15.60;99.90
23609;DHT22;11982;50.810;4.442;2022-10-31T09:57:19;15.70;99.90
23609;DHT22;11982;50.810;4.442;2022-10-31T09:59:49;15.80;99.90
23609;DHT22;11982;50.810;4.442;2022-10-31T10:02:34;16.00;99.90
23609;DHT22;11982;50.810;4.442;2022-10-31T10:05:09;16.00;99.90
23609;DHT22;11982;50.810;4.442;2022-10-31T10:08:17;16.10;99.90
23609;DHT22;11982;50.810;4.442;2022-10-31T10:22:30;16.50;99.90
23609;DHT22;11982;50.810;4.442;2022-10-31T10:30:33;17.40;99.90
23609;DHT22;11982;50.810;4.442;2022-10-31T10:33:16;17.80;99.90
23609;DHT22;11982;50.810;4.442;2022-10-31T10:35:55;17.90;99.90
23609;DHT22;11982;50.810;4.442;2022-10-31T10:40:53;18.20;99.90
23609;DHT22;11982;50.810;4.442;2022-10-31T10:43:23;18.00;99.90
23609;DHT22;11982;50.810;4.442;2022-10-31T10:51:06;17.80;99.90
23609;DHT22;11982;50.810;4.442;2022-10-31T10:53:46;17.90;99.90
23609;DHT22;11982;50.810;4.442;2022-10-31T10:56:38;17.90;99.90
23609;DHT22;11982;50.810;4.442;2022-10-31T10:59:11;18.20;99.90
23609;DHT22;11982;50.810;4.442;2022-10-31T11:01:39;18.20;99.90
23609;DHT22;11982;50.810;4.442;2022-10-31T11:04:31;18.20;99.90
23609;DHT22;11982;50.810;4.442;2022-10-31T11:07:11;18.50;99.90
23609;DHT22;11982;50.810;4.442;2022-10-31T11:09:37;18.40;99.90
23609;DHT22;11982;50.810;4.442;2022-10-31T11:12:17;18.40;99.90
23609;DHT22;11982;50.810;4.442;2022-10-31T11:14:53;18.40;99.90
23609;DHT22;11982;50.810;4.442;2022-10-31T11:17:31;18.30;99.90
23609;DHT22;11982;50.810;4.442;2022-10-31T11:22:46;18.20;99.90
23609;DHT22;11982;50.810;4.442;2022-10-31T11:25:22;18.20;99.90
23609;DHT22;11982;50.810;4.442;2022-10-31T11:30:27;18.10;99.90
23609;DHT22;11982;50.810;4.442;2022-10-31T11:32:53;18.40;99.90
23609;DHT22;11982;50.810;4.442;2022-10-31T11:35:21;18.50;99.90
23609;DHT22;11982;50.810;4.442;2022-10-31T11:37:50;18.70;99.90
23609;DHT22;11982;50.810;4.442;2022-10-31T11:40:20;18.70;99.90
23609;DHT22;11982;50.810;4.442;2022-10-31T11:42:46;18.50;99.90
23609;DHT22;11982;50.810;4.442;2022-10-31T11:45:27;18.50;99.90
23609;DHT22;11982;50.810;4.442;2022-10-31T11:47:54;18.30;99.90
23609;DHT22;11982;50.810;4.442;2022-10-31T11:50:37;18.30;99.90
23609;DHT22;11982;50.810;4.442;2022-10-31T11:53:09;18.50;99.90
23609;DHT22;11982;50.810;4.442;2022-10-31T11:55:38;18.90;99.90
23609;DHT22;11982;50.810;4.442;2022-10-31T11:58:04;19.30;99.90
23609;DHT22;11982;50.810;4.442;2022-10-31T12:00:36;19.40;99.90
23609;DHT22;11982;50.810;4.442;2022-10-31T12:06:15;19.50;99.90
23609;DHT22;11982;50.810;4.442;2022-10-31T12:08:39;19.50;99.90
23609;DHT22;11982;50.810;4.442;2022-10-31T12:11:35;19.70;99.90
23609;DHT22;11982;50.810;4.442;2022-10-31T12:16:56;19.70;99.90
23609;DHT22;11982;50.810;4.442;2022-10-31T12:19:45;19.90;99.90
23609;DHT22;11982;50.810;4.442;2022-10-31T12:35:44;19.20;99.90
23609;DHT22;11982;50.810;4.442;2022-10-31T12:45:57;19.30;99.90
23609;DHT22;11982;50.810;4.442;2022-10-31T12:48:59;19.20;99.90
23609;DHT22;11982;50.810;4.442;2022-10-31T12:57:10;18.80;99.90
23609;DHT22;11982;50.810;4.442;2022-10-31T13:00:03;18.90;99.90
23609;DHT22;11982;50.810;4.442;2022-10-31T13:03:05;19.20;99.90
23609;DHT22;11982;50.810;4.442;2022-10-31T13:05:43;19.40;99.90
23609;DHT22;11982;50.810;4.442;2022-10-31T13:08:34;19.50;99.90
23609;DHT22;11982;50.810;4.442;2022-10-31T13:11:15;19.50;99.90
23609;DHT22;11982;50.810;4.442;2022-10-31T13:14:04;19.40;99.90
23609;DHT22;11982;50.810;4.442;2022-10-31T13:16:35;19.80;99.90
23609;DHT22;11982;50.810;4.442;2022-10-31T13:22:03;19.70;99.90
23609;DHT22;11982;50.810;4.442;2022-10-31T13:24:35;19.50;99.90
23609;DHT22;11982;50.810;4.442;2022-10-31T13:27:23;19.40;99.90
23609;DHT22;11982;50.810;4.442;2022-10-31T13:30:03;19.30;99.90
23609;DHT22;11982;50.810;4.442;2022-10-31T13:38:26;18.90;99.90
23609;DHT22;11982;50.810;4.442;2022-10-31T13:41:14;18.90;99.90
23609;DHT22;11982;50.810;4.442;2022-10-31T13:44:01;18.90;99.90
23609;DHT22;11982;50.810;4.442;2022-10-31T13:48:56;19.10;99.90
23609;DHT22;11982;50.810;4.442;2022-10-31T13:51:26;18.90;99.90
23609;DHT22;11982;50.810;4.442;2022-10-31T13:53:59;18.90;99.90
23609;DHT22;11982;50.810;4.442;2022-10-31T13:56:33;18.80;99.90
23609;DHT22;11982;50.810;4.442;2022-10-31T14:01:27;18.90;99.90
23609;DHT22;11982;50.810;4.442;2022-10-31T14:04:22;18.90;99.90
23609;DHT22;11982;50.810;4.442;2022-10-31T14:06:55;19.00;99.90
23609;DHT22;11982;50.810;4.442;2022-10-31T14:12:23;18.90;99.90
23609;DHT22;11982;50.810;4.442;2022-10-31T14:14:55;18.90;99.90
23609;DHT22;11982;50.810;4.442;2022-10-31T14:17:25;18.90;99.90
23609;DHT22;11982;50.810;4.442;2022-10-31T14:22:37;18.90;99.90
23609;DHT22;11982;50.810;4.442;2022-10-31T14:25:30;18.90;99.90
23609;DHT22;11982;50.810;4.442;2022-10-31T14:27:57;18.90;99.90
23609;DHT22;11982;50.810;4.442;2022-10-31T14:30:25;18.90;99.90
23609;DHT22;11982;50.810;4.442;2022-10-31T14:32:53;18.90;99.90
23609;DHT22;11982;50.810;4.442;2022-10-31T14:35:21;18.90;99.90
23609;DHT22;11982;50.810;4.442;2022-10-31T14:38:04;18.80;99.90
23609;DHT22;11982;50.810;4.442;2022-10-31T14:41:09;18.90;99.90
23609;DHT22;11982;50.810;4.442;2022-10-31T14:43:50;18.90;99.90
23609;DHT22;11982;50.810;4.442;2022-10-31T14:49:16;18.50;99.90
23609;DHT22;11982;50.810;4.442;2022-10-31T14:51:47;18.50;99.90
23609;DHT22;11982;50.810;4.442;2022-10-31T14:54:31;18.50;99.90
23609;DHT22;11982;50.810;4.442;2022-10-31T14:57:05;18.30;99.90
23609;DHT22;11982;50.810;4.442;2022-10-31T14:59:35;18.20;99.90
23609;DHT22;11982;50.810;4.442;2022-10-31T15:02:14;18.20;99.90
23609;DHT22;11982;50.810;4.442;2022-10-31T15:04:41;18.20;99.90
23609;DHT22;11982;50.810;4.442;2022-10-31T15:07:21;18.10;99.90
23609;DHT22;11982;50.810;4.442;2022-10-31T15:10:15;18.10;99.90
23609;DHT22;11982;50.810;4.442;2022-10-31T15:12:44;18.20;99.90
23609;DHT22;11982;50.810;4.442;2022-10-31T15:15:14;18.40;99.90
23609;DHT22;11982;50.810;4.442;2022-10-31T15:17:46;18.30;99.90
23609;DHT22;11982;50.810;4.442;2022-10-31T15:20:22;18.20;99.90
23609;DHT22;11982;50.810;4.442;2022-10-31T15:22:49;18.10;99.90
23609;DHT22;11982;50.810;4.442;2022-10-31T15:25:21;17.90;99.90
23609;DHT22;11982;50.810;4.442;2022-10-31T15:27:48;17.60;99.90
23609;DHT22;11982;50.810;4.442;2022-10-31T15:30:35;17.50;99.90
23609;DHT22;11982;50.810;4.442;2022-10-31T15:33:01;17.40;99.90
23609;DHT22;11982;50.810;4.442;2022-10-31T15:35:30;17.40;99.90
23609;DHT22;11982;50.810;4.442;2022-10-31T15:37:57;17.30;99.90
23609;DHT22;11982;50.810;4.442;2022-10-31T15:40:25;17.30;99.90
23609;DHT22;11982;50.810;4.442;2022-10-31T15:42:54;17.30;99.90
23609;DHT22;11982;50.810;4.442;2022-10-31T15:45:23;17.20;99.90
23609;DHT22;11982;50.810;4.442;2022-10-31T15:48:13;17.30;99.90
23609;DHT22;11982;50.810;4.442;2022-10-31T15:50:48;17.10;99.90
23609;DHT22;11982;50.810;4.442;2022-10-31T15:53:20;17.10;99.90
23609;DHT22;11982;50.810;4.442;2022-10-31T15:55:50;17.00;99.90
23609;DHT22;11982;50.810;4.442;2022-10-31T15:58:17;17.10;99.90
23609;DHT22;11982;50.810;4.442;2022-10-31T16:00:43;17.10;99.90
23609;DHT22;11982;50.810;4.442;2022-10-31T16:05:48;17.10;99.90
23609;DHT22;11982;50.810;4.442;2022-10-31T16:11:29;16.80;99.90
23609;DHT22;11982;50.810;4.442;2022-10-31T16:14:15;16.80;99.90
23609;DHT22;11982;50.810;4.442;2022-10-31T16:16:44;16.90;99.90
23609;DHT22;11982;50.810;4.442;2022-10-31T16:19:24;16.90;99.90
23609;DHT22;11982;50.810;4.442;2022-10-31T16:21:54;16.90;99.90
23609;DHT22;11982;50.810;4.442;2022-10-31T16:24:29;16.80;99.90
23609;DHT22;11982;50.810;4.442;2022-10-31T16:27:05;16.70;99.90
23609;DHT22;11982;50.810;4.442;2022-10-31T16:29:37;16.70;99.90
23609;DHT22;11982;50.810;4.442;2022-10-31T16:32:03;16.60;99.90
23609;DHT22;11982;50.810;4.442;2022-10-31T16:34:29;16.40;99.90
23609;DHT22;11982;50.810;4.442;2022-10-31T16:36:54;16.40;99.90
23609;DHT22;11982;50.810;4.442;2022-10-31T16:39:20;16.30;99.90
23609;DHT22;11982;50.810;4.442;2022-10-31T16:41:55;16.20;99.90
23609;DHT22;11982;50.810;4.442;2022-10-31T16:44:23;16.10;99.90
23609;DHT22;11982;50.810;4.442;2022-10-31T16:49:32;15.80;99.90
23609;DHT22;11982;50.810;4.442;2022-10-31T16:51:58;15.80;99.90
23609;DHT22;11982;50.810;4.442;2022-10-31T16:54:23;15.80;99.90
23609;DHT22;11982;50.810;4.442;2022-10-31T16:56:49;15.60;99.90
23609;DHT22;11982;50.810;4.442;2022-10-31T16:59:14;15.50;99.90
23609;DHT22;11982;50.810;4.442;2022-10-31T17:01:42;15.30;99.90
23609;DHT22;11982;50.810;4.442;2022-10-31T17:04:13;15.30;99.90
23609;DHT22;11982;50.810;4.442;2022-10-31T17:06:39;15.20;99.90
23609;DHT22;11982;50.810;4.442;2022-10-31T17:09:05;15.10;99.90
23609;DHT22;11982;50.810;4.442;2022-10-31T17:11:30;15.00;99.90
23609;DHT22;11982;50.810;4.442;2022-10-31T17:13:56;14.90;99.90
23609;DHT22;11982;50.810;4.442;2022-10-31T17:16:22;14.80;99.90
23609;DHT22;11982;50.810;4.442;2022-10-31T17:18:48;14.80;99.90
23609;DHT22;11982;50.810;4.442;2022-10-31T17:21:18;14.80;99.90
23609;DHT22;11982;50.810;4.442;2022-10-31T17:23:45;14.90;99.90
23609;DHT22;11982;50.810;4.442;2022-10-31T17:26:10;14.80;99.90
23609;DHT22;11982;50.810;4.442;2022-10-31T17:28:36;14.70;99.90
23609;DHT22;11982;50.810;4.442;2022-10-31T17:31:02;14.70;99.90
23609;DHT22;11982;50.810;4.442;2022-10-31T17:33:27;14.70;99.90
23609;DHT22;11982;50.810;4.442;2022-10-31T17:35:53;14.70;99.90
23609;DHT22;11982;50.810;4.442;2022-10-31T17:38:19;14.60;99.90
23609;DHT22;11982;50.810;4.442;2022-10-31T17:40:44;14.60;99.90
23609;DHT22;11982;50.810;4.442;2022-10-31T17:43:11;14.60;99.90
23609;DHT22;11982;50.810;4.442;2022-10-31T17:45:40;14.60;99.90
23609;DHT22;11982;50.810;4.442;2022-10-31T17:48:06;14.60;99.90
23609;DHT22;11982;50.810;4.442;2022-10-31T17:50:33;14.70;99.90
23609;DHT22;11982;50.810;4.442;2022-10-31T17:52:59;14.60;99.90